Terminal Aerodrome Forecast
Issued by NWS Pueblo, CO

Home | Current Version | Previous Version | Text Only | Print | Product List | Glossary On
Versions: 1 2 3 4 5 6 7 8 9 10 11 12 13 14 15 16 17 18 19 20 21 22 23 24 25 26 27 28 29 30 31 32 33 34 35 36 37 38 39 40 41 42 43 44
000
FTUS45 KPUB 131126
TAFCOS
TAF
KCOS 131126Z 1312/1412 35006KT P6SM FEW060 SCT150
     FM131900 17012KT P6SM SCT050 BKN100
     FM132100 17012KT P6SM VCTS SCT050CB BKN100
     FM140200 36008KT P6SM VCSH SCT060 BKN110
     FM140600 35007KT P6SM FEW200=

USA.gov is the U.S. government's official web portal to all federal, state and local government web resources and services.